CDT,Max TemperatureF,Mean TemperatureF,Min TemperatureF,Max Dew PointF,MeanDew PointF,Min DewpointF,Max Humidity, Mean Humidity, Min Humidity, Max Sea Level PressureIn, Mean Sea Level PressureIn, Min Sea Level PressureIn, Max VisibilityMiles, Mean VisibilityMiles, Min VisibilityMiles, Max Wind SpeedMPH, Mean Wind SpeedMPH, Max Gust SpeedMPH,PrecipitationIn, CloudCover, Events, WindDirDegrees
2012-6-1,66,57,47,48,46,42,93,69,44,30.06,29.99,29.93,10,10,10,13,6,20,T,4,Rain,300
2012-6-2,81,65,48,56,51,45,93,65,36,29.93,29.88,29.81,10,10,10,14,4,22,0.00,0,,236
2012-6-3,77,69,60,69,62,55,100,87,73,29.86,29.82,29.78,10,10,6,12,5,29,0.01,2,Rain,166
2012-6-4,91,77,62,67,62,51,100,64,27,29.87,29.83,29.78,10,5,0,22,9,26,0.00,0,Fog,272
2012-6-5,82,73,63,62,57,52,90,62,34,29.95,29.90,29.86,10,10,9,15,7,25,0.00,0,,87
2012-6-6,83,73,62,57,55,53,72,56,40,30.01,29.96,29.90,10,10,10,14,6,20,0.00,0,,112
2012-6-7,82,72,61,54,51,47,72,51,30,30.11,30.05,30.02,10,10,10,12,6,17,0.00,0,,110
2012-6-8,83,71,58,57,53,51,80,57,34,30.08,29.99,29.88,10,10,10,14,5,18,0.00,0,,172
2012-6-9,87,73,59,62,57,52,78,59,40,29.89,29.79,29.70,10,10,10,23,10,32,0.00,0,,165
2012-6-10,89,80,70,66,64,59,70,58,46,29.75,29.71,29.67,10,10,10,24,13,32,0.00,2,,163
2012-6-11,85,74,63,66,62,52,100,68,36,30.03,29.87,29.74,10,9,2,28,7,33,0.32,4,Rain-Thunderstorm,19
2012-6-12,82,69,56,56,51,47,87,59,31,30.17,30.11,30.04,10,10,10,13,5,22,0.00,0,,52
2012-6-13,84,72,59,62,55,50,69,54,39,30.09,30.00,29.91,10,10,10,17,9,26,0.00,0,,141
2012-6-14,88,77,65,64,61,55,81,62,43,29.95,29.89,29.80,10,10,10,22,13,29,0.00,0,,166
2012-6-15,83,75,67,65,62,55,93,70,47,29.94,29.88,29.81,10,10,10,18,8,24,T,2,,214
2012-6-16,89,79,68,69,64,61,90,67,43,29.99,29.95,29.91,10,10,10,20,8,32,0.00,2,,241
2012-6-17,92,80,67,70,67,64,93,69,44,29.98,29.84,29.69,10,10,9,22,11,29,0.00,1,,181
2012-6-18,94,85,75,68,65,61,74,58,41,29.73,29.68,29.65,10,10,10,25,16,35,0.00,0,,197
2012-6-19,88,81,73,68,65,62,79,63,46,29.85,29.80,29.74,10,10,10,30,17,38,0.00,2,,182
2012-6-20,89,82,74,67,65,64,74,59,44,29.93,29.86,29.82,10,10,10,25,15,35,T,3,,191
2012-6-21,83,75,66,67,63,52,100,67,34,30.10,30.02,29.90,10,8,2,21,6,26,1.18,5,Rain-Thunderstorm,349
2012-6-22,85,74,62,60,58,56,78,59,40,30.06,30.00,29.92,10,10,10,10,5,25,0.00,0,,91
2012-6-23,89,78,66,72,63,55,74,63,52,30.01,29.90,29.82,10,10,10,24,9,29,0.00,0,,128
2012-6-24,96,84,72,70,67,64,74,58,41,29.91,29.87,29.84,10,10,10,17,8,23,0.00,0,,196
2012-6-25,99,87,74,75,69,62,82,59,35,29.90,29.85,29.82,10,10,7,20,7,25,0.00,0,,91
2012-6-26,92,81,70,68,61,49,67,54,40,29.89,29.83,29.76,10,10,10,17,11,22,0.00,0,,129
2012-6-27,99,86,72,69,65,58,64,51,38,29.85,29.81,29.74,10,10,10,18,11,28,0.00,0,,188
2012-6-28,103,89,74,65,62,56,64,44,23,29.92,29.88,29.83,10,10,10,17,9,24,0.00,0,,207
2012-6-29,99,89,79,63,61,59,58,43,28,29.90,29.83,29.76,10,10,10,18,10,25,0.00,0,,206
2012-6-30,98,87,75,66,63,60,64,49,33,29.92,29.81,29.77,10,10,10,24,9,33,0.00,1,,210